sensor_id;sensor_type;location;lat;lon;timestamp;pressure;altitude;pressure_sealevel;temperature;humidity
25498;BME280;13406;53.380;7.226;2023-04-22T00:00:09;101051.69;;;12.30;100.00
25498;BME280;13406;53.380;7.226;2023-04-22T00:02:36;101013.78;;;12.05;100.00
25498;BME280;13406;53.380;7.226;2023-04-22T00:05:03;101046.28;;;12.43;100.00
25498;BME280;13406;53.380;7.226;2023-04-22T00:07:29;100979.22;;;11.95;100.00
25498;BME280;13406;53.380;7.226;2023-04-22T00:09:54;100994.13;;;11.98;100.00
25498;BME280;13406;53.380;7.226;2023-04-22T00:12:20;100979.19;;;11.89;100.00
25498;BME280;13406;53.380;7.226;2023-04-22T00:14:46;101089.19;;;12.58;100.00
25498;BME280;13406;53.380;7.226;2023-04-22T00:17:12;101011.72;;;12.07;100.00
25498;BME280;13406;53.380;7.226;2023-04-22T00:19:37;100916.72;;;11.73;100.00
25498;BME280;13406;53.380;7.226;2023-04-22T00:22:03;100983.78;;;12.15;100.00
25498;BME280;13406;53.380;7.226;2023-04-22T00:24:29;101076.13;;;12.62;100.00
25498;BME280;13406;53.380;7.226;2023-04-22T00:26:54;100959.38;;;12.03;100.00
25498;BME280;13406;53.380;7.226;2023-04-22T00:29:20;100930.97;;;11.67;100.00
25498;BME280;13406;53.380;7.226;2023-04-22T00:31:45;100993.09;;;12.52;100.00
25498;BME280;13406;53.380;7.226;2023-04-22T00:34:11;100842.47;;;11.26;100.00
25498;BME280;13406;53.380;7.226;2023-04-22T00:36:36;101003.25;;;12.43;100.00
25498;BME280;13406;53.380;7.226;2023-04-22T00:39:02;101034.72;;;12.50;100.00
25498;BME280;13406;53.380;7.226;2023-04-22T00:41:28;100800.06;;;10.95;100.00
25498;BME280;13406;53.380;7.226;2023-04-22T00:43:56;100819.91;;;11.14;100.00
25498;BME280;13406;53.380;7.226;2023-04-22T00:46:21;100682.88;;;10.34;100.00
25498;BME280;13406;53.380;7.226;2023-04-22T00:48:48;100855.91;;;11.26;100.00
25498;BME280;13406;53.380;7.226;2023-04-22T00:51:13;100677.22;;;10.15;100.00
25498;BME280;13406;53.380;7.226;2023-04-22T00:53:39;100752.09;;;10.78;100.00
25498;BME280;13406;53.380;7.226;2023-04-22T00:56:04;100660.38;;;10.28;100.00
25498;BME280;13406;53.380;7.226;2023-04-22T00:58:30;100726.25;;;10.57;100.00
25498;BME280;13406;53.380;7.226;2023-04-22T01:00:56;100940.34;;;11.91;100.00
25498;BME280;13406;53.380;7.226;2023-04-22T01:03:21;100844.69;;;11.09;100.00
25498;BME280;13406;53.380;7.226;2023-04-22T01:05:48;100844.34;;;11.32;100.00
25498;BME280;13406;53.380;7.226;2023-04-22T01:08:14;100849.31;;;11.35;100.00
25498;BME280;13406;53.380;7.226;2023-04-22T01:10:40;100702.66;;;10.33;100.00
25498;BME280;13406;53.380;7.226;2023-04-22T01:13:06;100747.16;;;10.75;100.00
25498;BME280;13406;53.380;7.226;2023-04-22T01:15:31;100750.03;;;10.74;100.00
25498;BME280;13406;53.380;7.226;2023-04-22T01:17:57;100724.16;;;10.46;100.00
25498;BME280;13406;53.380;7.226;2023-04-22T01:20:25;100600.81;;;9.85;100.00
25498;BME280;13406;53.380;7.226;2023-04-22T01:22:54;100672.97;;;10.34;100.00
25498;BME280;13406;53.380;7.226;2023-04-22T01:25:22;100779.59;;;10.87;100.00
25498;BME280;13406;53.380;7.226;2023-04-22T01:27:48;100748.34;;;10.59;100.00
25498;BME280;13406;53.380;7.226;2023-04-22T01:30:14;100992.69;;;12.22;100.00
25498;BME280;13406;53.380;7.226;2023-04-22T01:32:39;100856.91;;;11.25;100.00
25498;BME280;13406;53.380;7.226;2023-04-22T01:35:06;100787.78;;;10.72;100.00
25498;BME280;13406;53.380;7.226;2023-04-22T01:37:31;100840.19;;;11.23;100.00
25498;BME280;13406;53.380;7.226;2023-04-22T01:39:57;100603.47;;;9.85;100.00
25498;BME280;13406;53.380;7.226;2023-04-22T01:42:23;100716.44;;;10.30;100.00
25498;BME280;13406;53.380;7.226;2023-04-22T01:44:49;100717.50;;;10.35;100.00
25498;BME280;13406;53.380;7.226;2023-04-22T01:47:15;100644.75;;;10.04;100.00
25498;BME280;13406;53.380;7.226;2023-04-22T01:49:40;100733.78;;;10.82;100.00
25498;BME280;13406;53.380;7.226;2023-04-22T01:52:06;100734.34;;;10.71;100.00
25498;BME280;13406;53.380;7.226;2023-04-22T01:54:31;100629.78;;;10.16;100.00
25498;BME280;13406;53.380;7.226;2023-04-22T01:56:57;100749.41;;;10.78;100.00
25498;BME280;13406;53.380;7.226;2023-04-22T01:59:23;100594.31;;;9.66;100.00
25498;BME280;13406;53.380;7.226;2023-04-22T02:01:49;100629.28;;;9.92;100.00
25498;BME280;13406;53.380;7.226;2023-04-22T02:04:14;100679.78;;;10.37;100.00
25498;BME280;13406;53.380;7.226;2023-04-22T02:06:40;100745.19;;;10.49;100.00
25498;BME280;13406;53.380;7.226;2023-04-22T02:09:05;100555.31;;;9.50;100.00
25498;BME280;13406;53.380;7.226;2023-04-22T02:11:31;100713.88;;;10.56;100.00
25498;BME280;13406;53.380;7.226;2023-04-22T02:13:57;100839.78;;;11.32;100.00
25498;BME280;13406;53.380;7.226;2023-04-22T02:16:22;100720.50;;;10.67;100.00
25498;BME280;13406;53.380;7.226;2023-04-22T02:18:48;100652.78;;;9.97;100.00
25498;BME280;13406;53.380;7.226;2023-04-22T02:21:13;100605.19;;;9.92;100.00
25498;BME280;13406;53.380;7.226;2023-04-22T02:23:39;100646.44;;;10.05;100.00
25498;BME280;13406;53.380;7.226;2023-04-22T02:26:06;100611.91;;;9.75;100.00
25498;BME280;13406;53.380;7.226;2023-04-22T02:28:32;100599.47;;;9.61;100.00
25498;BME280;13406;53.380;7.226;2023-04-22T02:30:58;100730.97;;;10.42;100.00
25498;BME280;13406;53.380;7.226;2023-04-22T02:33:23;100789.63;;;10.65;100.00
25498;BME280;13406;53.380;7.226;2023-04-22T02:35:49;100693.22;;;10.02;100.00
25498;BME280;13406;53.380;7.226;2023-04-22T02:38:14;100629.78;;;9.68;100.00
25498;BME280;13406;53.380;7.226;2023-04-22T02:40:39;100752.19;;;10.44;100.00
25498;BME280;13406;53.380;7.226;2023-04-22T02:43:06;100971.91;;;11.69;100.00
25498;BME280;13406;53.380;7.226;2023-04-22T02:45:31;100629.06;;;9.53;100.00
25498;BME280;13406;53.380;7.226;2023-04-22T02:47:57;100589.22;;;9.36;100.00
25498;BME280;13406;53.380;7.226;2023-04-22T02:50:22;100927.81;;;11.44;100.00
25498;BME280;13406;53.380;7.226;2023-04-22T02:52:48;100927.59;;;11.39;100.00
25498;BME280;13406;53.380;7.226;2023-04-22T02:55:13;100872.69;;;10.93;100.00
25498;BME280;13406;53.380;7.226;2023-04-22T02:57:39;100734.31;;;10.16;100.00
25498;BME280;13406;53.380;7.226;2023-04-22T03:00:05;100588.38;;;9.29;100.00
25498;BME280;13406;53.380;7.226;2023-04-22T03:02:32;100606.50;;;9.34;100.00
25498;BME280;13406;53.380;7.226;2023-04-22T03:04:57;100618.38;;;9.53;100.00
25498;BME280;13406;53.380;7.226;2023-04-22T03:07:23;100722.94;;;10.07;100.00
25498;BME280;13406;53.380;7.226;2023-04-22T03:09:48;100641.63;;;9.52;100.00
25498;BME280;13406;53.380;7.226;2023-04-22T03:12:13;100710.81;;;9.83;100.00
25498;BME280;13406;53.380;7.226;2023-04-22T03:14:39;100577.78;;;9.14;100.00
25498;BME280;13406;53.380;7.226;2023-04-22T03:17:04;100790.47;;;10.72;100.00
25498;BME280;13406;53.380;7.226;2023-04-22T03:19:30;100751.06;;;10.25;100.00
25498;BME280;13406;53.380;7.226;2023-04-22T03:21:56;100656.38;;;9.69;100.00
25498;BME280;13406;53.380;7.226;2023-04-22T03:24:22;100522.81;;;9.12;100.00
25498;BME280;13406;53.380;7.226;2023-04-22T03:26:47;100708.00;;;9.91;100.00
25498;BME280;13406;53.380;7.226;2023-04-22T03:29:13;100593.34;;;9.04;100.00
25498;BME280;13406;53.380;7.226;2023-04-22T03:31:38;100567.38;;;8.98;100.00
25498;BME280;13406;53.380;7.226;2023-04-22T03:34:04;100798.94;;;10.69;100.00
25498;BME280;13406;53.380;7.226;2023-04-22T03:36:30;100729.78;;;10.16;100.00
25498;BME280;13406;53.380;7.226;2023-04-22T03:38:56;100519.84;;;8.72;100.00
25498;BME280;13406;53.380;7.226;2023-04-22T03:41:21;100552.00;;;8.35;100.00
25498;BME280;13406;53.380;7.226;2023-04-22T03:43:47;100618.44;;;9.03;100.00
25498;BME280;13406;53.380;7.226;2023-04-22T03:46:13;100780.63;;;10.38;100.00
25498;BME280;13406;53.380;7.226;2023-04-22T03:48:38;100510.16;;;8.99;100.00
25498;BME280;13406;53.380;7.226;2023-04-22T03:51:04;100543.88;;;8.65;100.00
25498;BME280;13406;53.380;7.226;2023-04-22T03:53:29;100592.41;;;8.90;100.00
25498;BME280;13406;53.380;7.226;2023-04-22T03:55:55;100638.16;;;9.58;100.00
25498;BME280;13406;53.380;7.226;2023-04-22T03:58:20;100743.66;;;9.36;100.00
25498;BME280;13406;53.380;7.226;2023-04-22T04:00:46;100563.09;;;8.54;100.00
25498;BME280;13406;53.380;7.226;2023-04-22T04:03:11;100698.97;;;9.36;100.00
25498;BME280;13406;53.380;7.226;2023-04-22T04:05:36;100588.94;;;8.47;100.00
25498;BME280;13406;53.380;7.226;2023-04-22T04:08:02;100696.25;;;9.30;100.00
25498;BME280;13406;53.380;7.226;2023-04-22T04:10:28;100863.34;;;10.76;100.00
25498;BME280;13406;53.380;7.226;2023-04-22T04:12:53;100854.34;;;10.55;100.00
25498;BME280;13406;53.380;7.226;2023-04-22T04:15:19;100852.84;;;10.81;100.00
25498;BME280;13406;53.380;7.226;2023-04-22T04:17:45;100831.13;;;10.69;100.00
25498;BME280;13406;53.380;7.226;2023-04-22T04:20:12;100859.28;;;10.45;100.00
25498;BME280;13406;53.380;7.226;2023-04-22T04:22:38;100855.06;;;10.08;100.00
25498;BME280;13406;53.380;7.226;2023-04-22T04:25:04;100849.47;;;10.03;100.00
25498;BME280;13406;53.380;7.226;2023-04-22T04:27:29;100833.66;;;9.86;100.00
25498;BME280;13406;53.380;7.226;2023-04-22T04:29:55;100846.53;;;9.98;100.00
25498;BME280;13406;53.380;7.226;2023-04-22T04:32:20;100827.84;;;10.04;100.00
25498;BME280;13406;53.380;7.226;2023-04-22T04:34:46;100815.16;;;10.19;100.00
25498;BME280;13406;53.380;7.226;2023-04-22T04:37:12;100825.34;;;10.31;100.00
25498;BME280;13406;53.380;7.226;2023-04-22T04:39:37;100822.47;;;10.04;100.00
25498;BME280;13406;53.380;7.226;2023-04-22T04:42:03;100755.50;;;9.76;100.00
25498;BME280;13406;53.380;7.226;2023-04-22T04:44:28;100780.31;;;9.91;100.00
25498;BME280;13406;53.380;7.226;2023-04-22T04:46:56;100819.38;;;10.35;100.00
25498;BME280;13406;53.380;7.226;2023-04-22T04:49:22;100805.00;;;10.15;100.00
25498;BME280;13406;53.380;7.226;2023-04-22T04:51:48;100844.09;;;10.59;100.00
25498;BME280;13406;53.380;7.226;2023-04-22T04:54:14;100827.13;;;10.58;100.00
25498;BME280;13406;53.380;7.226;2023-04-22T04:56:40;100826.28;;;10.51;100.00
25498;BME280;13406;53.380;7.226;2023-04-22T04:59:05;100809.63;;;10.62;100.00
25498;BME280;13406;53.380;7.226;2023-04-22T05:01:30;100835.91;;;10.74;100.00
25498;BME280;13406;53.380;7.226;2023-04-22T05:03:56;100819.56;;;10.69;100.00
25498;BME280;13406;53.380;7.226;2023-04-22T05:06:21;100796.47;;;10.68;100.00
25498;BME280;13406;53.380;7.226;2023-04-22T05:08:47;100830.59;;;10.94;100.00
25498;BME280;13406;53.380;7.226;2023-04-22T05:11:12;100820.28;;;10.91;100.00
25498;BME280;13406;53.380;7.226;2023-04-22T05:13:38;100767.53;;;10.63;100.00
25498;BME280;13406;53.380;7.226;2023-04-22T05:16:03;100827.31;;;11.05;100.00
25498;BME280;13406;53.380;7.226;2023-04-22T05:18:29;100823.22;;;11.02;100.00
25498;BME280;13406;53.380;7.226;2023-04-22T05:20:54;100819.66;;;11.02;100.00
25498;BME280;13406;53.380;7.226;2023-04-22T05:23:23;100825.66;;;11.04;100.00
25498;BME280;13406;53.380;7.226;2023-04-22T05:25:48;100731.03;;;10.62;100.00
25498;BME280;13406;53.380;7.226;2023-04-22T05:28:13;100790.19;;;11.08;100.00
25498;BME280;13406;53.380;7.226;2023-04-22T05:30:39;100824.50;;;11.33;100.00
25498;BME280;13406;53.380;7.226;2023-04-22T05:33:04;100810.84;;;11.28;100.00
25498;BME280;13406;53.380;7.226;2023-04-22T05:35:30;100816.03;;;11.29;100.00
25498;BME280;13406;53.380;7.226;2023-04-22T05:37:55;100811.06;;;11.20;100.00
25498;BME280;13406;53.380;7.226;2023-04-22T05:40:21;100805.69;;;11.26;100.00
25498;BME280;13406;53.380;7.226;2023-04-22T05:42:46;100820.16;;;11.45;100.00
25498;BME280;13406;53.380;7.226;2023-04-22T05:45:11;100758.97;;;11.07;100.00
25498;BME280;13406;53.380;7.226;2023-04-22T05:47:37;100833.00;;;11.43;100.00
25498;BME280;13406;53.380;7.226;2023-04-22T05:50:03;100830.28;;;11.37;100.00
25498;BME280;13406;53.380;7.226;2023-04-22T05:52:28;100805.69;;;11.20;100.00
25498;BME280;13406;53.380;7.226;2023-04-22T05:54:54;100798.88;;;11.17;100.00
25498;BME280;13406;53.380;7.226;2023-04-22T05:57:20;100834.88;;;11.49;100.00
25498;BME280;13406;53.380;7.226;2023-04-22T05:59:45;100832.16;;;11.63;100.00
25498;BME280;13406;53.380;7.226;2023-04-22T06:02:10;100829.25;;;11.51;100.00
25498;BME280;13406;53.380;7.226;2023-04-22T06:04:36;100815.44;;;11.54;100.00
25498;BME280;13406;53.380;7.226;2023-04-22T06:07:02;100832.41;;;11.74;100.00
25498;BME280;13406;53.380;7.226;2023-04-22T06:09:27;100812.16;;;11.72;100.00
25498;BME280;13406;53.380;7.226;2023-04-22T06:11:52;100820.00;;;11.93;100.00
25498;BME280;13406;53.380;7.226;2023-04-22T06:14:18;100807.59;;;11.99;100.00
25498;BME280;13406;53.380;7.226;2023-04-22T06:16:43;100796.66;;;12.01;100.00
25498;BME280;13406;53.380;7.226;2023-04-22T06:19:09;100820.41;;;12.17;100.00
25498;BME280;13406;53.380;7.226;2023-04-22T06:21:34;100813.38;;;12.16;100.00
25498;BME280;13406;53.380;7.226;2023-04-22T06:24:02;100786.84;;;12.26;100.00
25498;BME280;13406;53.380;7.226;2023-04-22T06:26:29;100802.97;;;12.39;100.00
25498;BME280;13406;53.380;7.226;2023-04-22T06:28:55;100807.53;;;12.39;100.00
25498;BME280;13406;53.380;7.226;2023-04-22T06:31:20;100798.38;;;12.53;100.00
25498;BME280;13406;53.380;7.226;2023-04-22T06:33:45;100797.19;;;12.29;100.00
25498;BME280;13406;53.380;7.226;2023-04-22T06:36:12;100813.88;;;12.58;100.00
25498;BME280;13406;53.380;7.226;2023-04-22T06:38:37;100817.16;;;12.66;100.00
25498;BME280;13406;53.380;7.226;2023-04-22T06:41:03;100813.69;;;12.46;100.00
25498;BME280;13406;53.380;7.226;2023-04-22T06:43:28;100830.47;;;12.48;100.00
25498;BME280;13406;53.380;7.226;2023-04-22T06:45:53;100824.66;;;12.51;100.00
25498;BME280;13406;53.380;7.226;2023-04-22T06:48:19;100833.09;;;12.68;100.00
25498;BME280;13406;53.380;7.226;2023-04-22T06:50:45;100835.38;;;12.64;100.00
25498;BME280;13406;53.380;7.226;2023-04-22T06:53:10;100829.78;;;12.66;100.00
25498;BME280;13406;53.380;7.226;2023-04-22T06:55:36;100825.97;;;12.87;100.00
25498;BME280;13406;53.380;7.226;2023-04-22T06:58:01;100826.44;;;12.77;100.00
25498;BME280;13406;53.380;7.226;2023-04-22T07:00:27;100819.41;;;12.76;100.00
25498;BME280;13406;53.380;7.226;2023-04-22T07:02:53;100844.78;;;12.94;100.00
25498;BME280;13406;53.380;7.226;2023-04-22T07:05:19;100832.78;;;12.89;100.00
25498;BME280;13406;53.380;7.226;2023-04-22T07:07:45;100819.16;;;12.84;100.00
25498;BME280;13406;53.380;7.226;2023-04-22T07:10:11;100841.00;;;13.08;100.00
25498;BME280;13406;53.380;7.226;2023-04-22T07:12:38;100830.63;;;13.11;100.00
25498;BME280;13406;53.380;7.226;2023-04-22T07:15:04;100831.81;;;13.16;100.00
25498;BME280;13406;53.380;7.226;2023-04-22T07:17:30;100831.66;;;13.10;100.00
25498;BME280;13406;53.380;7.226;2023-04-22T07:19:56;100838.25;;;13.15;100.00
25498;BME280;13406;53.380;7.226;2023-04-22T07:22:21;100835.56;;;13.15;100.00
25498;BME280;13406;53.380;7.226;2023-04-22T07:24:46;100832.91;;;13.08;100.00
25498;BME280;13406;53.380;7.226;2023-04-22T07:27:12;100812.25;;;13.02;100.00
25498;BME280;13406;53.380;7.226;2023-04-22T07:29:37;100822.88;;;13.28;100.00
25498;BME280;13406;53.380;7.226;2023-04-22T07:32:03;100793.56;;;13.07;100.00
25498;BME280;13406;53.380;7.226;2023-04-22T07:34:28;100811.63;;;13.38;100.00
25498;BME280;13406;53.380;7.226;2023-04-22T07:36:54;100795.06;;;13.34;100.00
25498;BME280;13406;53.380;7.226;2023-04-22T07:39:20;100788.72;;;13.16;100.00
25498;BME280;13406;53.380;7.226;2023-04-22T07:41:45;100795.47;;;13.38;100.00
25498;BME280;13406;53.380;7.226;2023-04-22T07:44:11;100804.09;;;13.47;100.00
25498;BME280;13406;53.380;7.226;2023-04-22T07:46:40;100803.22;;;13.53;100.00
25498;BME280;13406;53.380;7.226;2023-04-22T07:49:06;100808.59;;;13.53;100.00
25498;BME280;13406;53.380;7.226;2023-04-22T07:51:31;100810.91;;;13.49;100.00
25498;BME280;13406;53.380;7.226;2023-04-22T07:53:57;100796.84;;;13.47;100.00
25498;BME280;13406;53.380;7.226;2023-04-22T07:56:22;100810.97;;;13.68;100.00
25498;BME280;13406;53.380;7.226;2023-04-22T07:58:48;100800.69;;;13.58;100.00
25498;BME280;13406;53.380;7.226;2023-04-22T08:01:14;100807.09;;;13.64;100.00
25498;BME280;13406;53.380;7.226;2023-04-22T08:03:40;100806.75;;;13.78;100.00
25498;BME280;13406;53.380;7.226;2023-04-22T08:06:05;100783.81;;;13.69;100.00
25498;BME280;13406;53.380;7.226;2023-04-22T08:08:31;100775.56;;;13.64;100.00
25498;BME280;13406;53.380;7.226;2023-04-22T08:10:56;100794.78;;;13.74;100.00
25498;BME280;13406;53.380;7.226;2023-04-22T08:13:22;100780.44;;;13.74;100.00
25498;BME280;13406;53.380;7.226;2023-04-22T08:15:47;100793.88;;;13.81;100.00
25498;BME280;13406;53.380;7.226;2023-04-22T08:18:13;100781.16;;;13.88;100.00
25498;BME280;13406;53.380;7.226;2023-04-22T08:20:38;100786.88;;;13.98;100.00
25498;BME280;13406;53.380;7.226;2023-04-22T08:23:03;100741.22;;;13.78;100.00
25498;BME280;13406;53.380;7.226;2023-04-22T08:25:31;100777.91;;;14.04;100.00
25498;BME280;13406;53.380;7.226;2023-04-22T08:27:56;100779.25;;;14.13;100.00
25498;BME280;13406;53.380;7.226;2023-04-22T08:30:22;100745.28;;;14.06;100.00
25498;BME280;13406;53.380;7.226;2023-04-22T08:32:47;100764.56;;;14.28;100.00
25498;BME280;13406;53.380;7.226;2023-04-22T08:35:13;100770.94;;;14.33;100.00
25498;BME280;13406;53.380;7.226;2023-04-22T08:37:39;100752.13;;;14.27;100.00
25498;BME280;13406;53.380;7.226;2023-04-22T08:40:06;100696.09;;;14.10;100.00
25498;BME280;13406;53.380;7.226;2023-04-22T08:42:32;100772.28;;;14.79;100.00
25498;BME280;13406;53.380;7.226;2023-04-22T08:44:58;100769.72;;;14.84;100.00
25498;BME280;13406;53.380;7.226;2023-04-22T08:47:24;100764.78;;;14.81;100.00
25498;BME280;13406;53.380;7.226;2023-04-22T08:49:53;100736.81;;;14.57;100.00
25498;BME280;13406;53.380;7.226;2023-04-22T08:52:19;100746.41;;;14.72;100.00
25498;BME280;13406;53.380;7.226;2023-04-22T08:54:45;100720.06;;;14.55;100.00
25498;BME280;13406;53.380;7.226;2023-04-22T08:57:11;100758.53;;;14.81;100.00
25498;BME280;13406;53.380;7.226;2023-04-22T08:59:37;100655.84;;;14.27;100.00
25498;BME280;13406;53.380;7.226;2023-04-22T09:02:04;100737.03;;;14.74;100.00
25498;BME280;13406;53.380;7.226;2023-04-22T09:04:30;100757.50;;;14.82;100.00
25498;BME280;13406;53.380;7.226;2023-04-22T09:06:58;100740.09;;;14.78;100.00
25498;BME280;13406;53.380;7.226;2023-04-22T09:09:24;100752.25;;;14.87;100.00
25498;BME280;13406;53.380;7.226;2023-04-22T09:11:49;100738.28;;;14.90;100.00
25498;BME280;13406;53.380;7.226;2023-04-22T09:14:15;100741.84;;;15.14;100.00
25498;BME280;13406;53.380;7.226;2023-04-22T09:16:46;100733.84;;;15.07;100.00
25498;BME280;13406;53.380;7.226;2023-04-22T09:19:12;100736.13;;;15.22;100.00
25498;BME280;13406;53.380;7.226;2023-04-22T09:21:39;100723.56;;;15.28;100.00
25498;BME280;13406;53.380;7.226;2023-04-22T09:24:06;100738.25;;;15.44;100.00
25498;BME280;13406;53.380;7.226;2023-04-22T09:26:32;100743.66;;;15.44;100.00
25498;BME280;13406;53.380;7.226;2023-04-22T09:28:58;100735.91;;;15.47;100.00
25498;BME280;13406;53.380;7.226;2023-04-22T09:31:26;100677.97;;;15.20;100.00
25498;BME280;13406;53.380;7.226;2023-04-22T09:33:57;100734.09;;;15.71;100.00
25498;BME280;13406;53.380;7.226;2023-04-22T09:36:26;100735.56;;;15.67;100.00
25498;BME280;13406;53.380;7.226;2023-04-22T09:39:04;100741.25;;;15.77;100.00
25498;BME280;13406;53.380;7.226;2023-04-22T09:41:33;100734.56;;;15.80;100.00
25498;BME280;13406;53.380;7.226;2023-04-22T09:44:04;100732.19;;;15.84;100.00
25498;BME280;13406;53.380;7.226;2023-04-22T09:46:30;100738.53;;;16.01;100.00
25498;BME280;13406;53.380;7.226;2023-04-22T09:48:57;100728.53;;;16.01;100.00
25498;BME280;13406;53.380;7.226;2023-04-22T09:51:25;100736.59;;;16.25;100.00
25498;BME280;13406;53.380;7.226;2023-04-22T09:54:04;100734.59;;;16.32;100.00
25498;BME280;13406;53.380;7.226;2023-04-22T09:59:07;100723.81;;;16.20;100.00
25498;BME280;13406;53.380;7.226;2023-04-22T10:01:40;100724.44;;;16.39;100.00
25498;BME280;13406;53.380;7.226;2023-04-22T10:04:06;100685.25;;;16.42;100.00
25498;BME280;13406;53.380;7.226;2023-04-22T10:06:34;100711.97;;;16.79;100.00
25498;BME280;13406;53.380;7.226;2023-04-22T10:09:00;100703.50;;;16.75;100.00
25498;BME280;13406;53.380;7.226;2023-04-22T10:11:26;100358.56;;;14.89;100.00
25498;BME280;13406;53.380;7.226;2023-04-22T10:13:51;100698.22;;;17.14;100.00
25498;BME280;13406;53.380;7.226;2023-04-22T10:16:19;100398.91;;;15.36;100.00
25498;BME280;13406;53.380;7.226;2023-04-22T10:18:46;100533.97;;;16.12;100.00
25498;BME280;13406;53.380;7.226;2023-04-22T10:21:12;100492.66;;;15.88;100.00
25498;BME280;13406;53.380;7.226;2023-04-22T10:23:44;100424.41;;;15.40;100.00
25498;BME280;13406;53.380;7.226;2023-04-22T10:26:11;100510.59;;;15.77;100.00
25498;BME280;13406;53.380;7.226;2023-04-22T10:28:41;100656.25;;;17.00;100.00
25498;BME280;13406;53.380;7.226;2023-04-22T10:31:19;100676.22;;;17.27;100.00
25498;BME280;13406;53.380;7.226;2023-04-22T10:33:48;100606.56;;;16.77;100.00
25498;BME280;13406;53.380;7.226;2023-04-22T10:41:32;100606.06;;;17.14;100.00
25498;BME280;13406;53.380;7.226;2023-04-22T10:44:00;100652.56;;;17.61;100.00
25498;BME280;13406;53.380;7.226;2023-04-22T10:49:19;100577.84;;;17.10;100.00
25498;BME280;13406;53.380;7.226;2023-04-22T10:51:50;100624.13;;;17.42;100.00
25498;BME280;13406;53.380;7.226;2023-04-22T10:57:06;100630.53;;;17.75;100.00
25498;BME280;13406;53.380;7.226;2023-04-22T10:59:35;100559.72;;;17.32;100.00
25498;BME280;13406;53.380;7.226;2023-04-22T11:02:06;100620.97;;;17.89;100.00
25498;BME280;13406;53.380;7.226;2023-04-22T11:04:32;100528.19;;;17.26;100.00
25498;BME280;13406;53.380;7.226;2023-04-22T11:09:52;100584.31;;;18.09;100.00
25498;BME280;13406;53.380;7.226;2023-04-22T11:15:13;100614.00;;;18.20;100.00
25498;BME280;13406;53.380;7.226;2023-04-22T11:17:47;100582.47;;;18.14;100.00
25498;BME280;13406;53.380;7.226;2023-04-22T11:20:14;100528.91;;;17.60;100.00
25498;BME280;13406;53.380;7.226;2023-04-22T11:22:45;100453.34;;;17.03;100.00
25498;BME280;13406;53.380;7.226;2023-04-22T11:25:10;100564.97;;;18.05;100.00
25498;BME280;13406;53.380;7.226;2023-04-22T11:27:37;100570.38;;;18.00;100.00
25498;BME280;13406;53.380;7.226;2023-04-22T11:32:29;100462.78;;;17.39;100.00
25498;BME280;13406;53.380;7.226;2023-04-22T11:34:55;100467.91;;;17.63;100.00
25498;BME280;13406;53.380;7.226;2023-04-22T11:37:22;100430.03;;;17.46;100.00
25498;BME280;13406;53.380;7.226;2023-04-22T11:39:48;100566.63;;;18.33;100.00
25498;BME280;13406;53.380;7.226;2023-04-22T11:42:19;100587.94;;;18.46;100.00
25498;BME280;13406;53.380;7.226;2023-04-22T11:44:45;100519.81;;;18.21;100.00
25498;BME280;13406;53.380;7.226;2023-04-22T11:47:11;100544.59;;;18.62;100.00
25498;BME280;13406;53.380;7.226;2023-04-22T11:49:37;100442.47;;;17.91;100.00
25498;BME280;13406;53.380;7.226;2023-04-22T11:52:02;100523.44;;;18.32;100.00
25498;BME280;13406;53.380;7.226;2023-04-22T11:54:35;100589.56;;;18.74;100.00
25498;BME280;13406;53.380;7.226;2023-04-22T11:57:07;100548.41;;;18.61;100.00
25498;BME280;13406;53.380;7.226;2023-04-22T11:59:34;100581.31;;;18.96;100.00
25498;BME280;13406;53.380;7.226;2023-04-22T12:02:03;100576.25;;;19.10;100.00
25498;BME280;13406;53.380;7.226;2023-04-22T12:04:37;100591.75;;;19.10;100.00
25498;BME280;13406;53.380;7.226;2023-04-22T12:07:03;100585.03;;;19.23;100.00
25498;BME280;13406;53.380;7.226;2023-04-22T12:09:29;100522.44;;;19.12;100.00
25498;BME280;13406;53.380;7.226;2023-04-22T12:11:55;100517.22;;;19.01;100.00
25498;BME280;13406;53.380;7.226;2023-04-22T12:14:20;100530.31;;;19.14;100.00
25498;BME280;13406;53.380;7.226;2023-04-22T12:16:45;100500.22;;;18.78;100.00
25498;BME280;13406;53.380;7.226;2023-04-22T12:19:11;100322.72;;;17.50;100.00
25498;BME280;13406;53.380;7.226;2023-04-22T12:21:36;100399.75;;;18.14;100.00
25498;BME280;13406;53.380;7.226;2023-04-22T12:24:07;100572.94;;;19.03;100.00
25498;BME280;13406;53.380;7.226;2023-04-22T12:26:34;100424.63;;;18.33;100.00
25498;BME280;13406;53.380;7.226;2023-04-22T12:29:02;100507.75;;;19.13;100.00
25498;BME280;13406;53.380;7.226;2023-04-22T12:31:28;100419.78;;;18.77;100.00
25498;BME280;13406;53.380;7.226;2023-04-22T12:33:53;100498.44;;;19.57;100.00
25498;BME280;13406;53.380;7.226;2023-04-22T12:36:19;100495.53;;;19.74;100.00
25498;BME280;13406;53.380;7.226;2023-04-22T12:38:45;100345.53;;;18.66;100.00
25498;BME280;13406;53.380;7.226;2023-04-22T12:41:11;100379.94;;;19.03;100.00
25498;BME280;13406;53.380;7.226;2023-04-22T12:43:36;100295.72;;;18.45;100.00
25498;BME280;13406;53.380;7.226;2023-04-22T12:46:04;100432.22;;;19.26;100.00
25498;BME280;13406;53.380;7.226;2023-04-22T12:48:30;100463.25;;;19.30;100.00
25498;BME280;13406;53.380;7.226;2023-04-22T12:50:56;100265.59;;;17.62;100.00
25498;BME280;13406;53.380;7.226;2023-04-22T12:53:22;100519.31;;;19.36;100.00
25498;BME280;13406;53.380;7.226;2023-04-22T12:55:48;100437.28;;;18.59;100.00